Time;durP1;ratioP1;P1;durP2;ratioP2;P2;SDS_P1;SDS_P2;PMS_P1;PMS_P2;Temp;Humidity;BMP_temperature;BMP_pressure;BME280_temperature;BME280_humidity;BME280_pressure;Samples;Min_cycle;Max_cycle;Signal;HPM_P1;HPM_P2
2023/05/01 00:00:03;;;;;;;;;;;;;;;11.06;73.93;96397.84;5075606;28;19947;-76
2023/05/01 00:02:29;;;;;;;;;;;;;;;11.04;74.11;96399.91;5058612;28;19959;-77
2023/05/01 00:04:55;;;;;;;;;;;;;;;11.04;74.07;96395.44;5075546;28;19946;-73
2023/05/01 00:07:21;;;;;;;;;;;;;;;11.06;74.50;96395.22;5075791;28;19969;-74
2023/05/01 00:09:47;;;;;;;;;;;;;;;11.04;73.88;96384.94;5057641;28;20286;-74
2023/05/01 00:12:13;;;;;;;;;;;;;;;11.03;73.74;96380.75;5057336;28;19982;-74
2023/05/01 00:14:40;;;;;;;;;;;;;;;11.05;73.48;96376.06;5075470;28;20369;-74
2023/05/01 00:17:06;;;;;;;;;;;;;;;11.07;73.41;96371.41;5057001;28;19950;-74
2023/05/01 00:19:31;;;;;;;;;;;;;;;11.09;73.83;96371.19;5075559;28;19943;-74
2023/05/01 00:21:57;;;;;;;;;;;;;;;11.11;73.52;96371.75;5075516;28;19959;-73
2023/05/01 00:24:23;;;;;;;;;;;;;;;11.12;73.68;96368.91;5075713;28;19946;-70
2023/05/01 00:26:49;;;;;;;;;;;;;;;11.13;74.17;96369.72;5075103;28;20290;-76
2023/05/01 00:29:15;;;;;;;;;;;;;;;11.14;73.41;96366.84;5075118;28;19942;-76
2023/05/01 00:31:42;;;;;;;;;;;;;;;11.14;73.24;96361.59;5075809;28;19938;-75
2023/05/01 00:34:08;;;;;;;;;;;;;;;11.15;73.56;96362.44;5075825;28;19941;-76
2023/05/01 00:36:34;;;;;;;;;;;;;;;11.14;73.36;96358.97;5075210;28;19968;-76
2023/05/01 00:39:00;;;;;;;;;;;;;;;11.14;73.93;96355.56;5074998;28;19991;-76
2023/05/01 00:41:26;;;;;;;;;;;;;;;11.13;73.80;96360.00;5074685;28;19974;-75
2023/05/01 00:43:51;;;;;;;;;;;;;;;11.13;72.83;96352.13;5075369;28;19941;-69
2023/05/01 00:46:17;;;;;;;;;;;;;;;11.12;73.49;96344.47;5074711;28;20003;-75
2023/05/01 00:48:43;;;;;;;;;;;;;;;11.11;73.16;96346.31;5075469;28;19943;-75
2023/05/01 00:51:11;;;;;;;;;;;;;;;11.11;73.10;96333.19;5075079;28;19991;-75
2023/05/01 00:53:38;;;;;;;;;;;;;;;11.11;73.46;96345.53;5056819;28;20321;-76
2023/05/01 00:56:05;;;;;;;;;;;;;;;11.11;73.17;96335.81;5074974;28;20310;-77
2023/05/01 00:58:31;;;;;;;;;;;;;;;11.10;73.65;96334.19;5074699;28;19958;-75
2023/05/01 01:00:57;;;;;;;;;;;;;;;11.10;73.48;96325.53;5074579;28;20323;-78
2023/05/01 01:03:23;;;;;;;;;;;;;;;11.10;73.27;96328.94;5074396;28;20024;-79
2023/05/01 01:06:03;;;;;;;;;;;;;;;11.11;73.22;96327.16;5074360;28;19940;-79
2023/05/01 01:08:40;;;;;;;;;;;;;;;11.09;72.85;96324.75;5074927;28;20418;-78
2023/05/01 01:11:18;;;;;;;;;;;;;;;11.08;72.55;96311.84;5075153;28;19946;-78
2023/05/01 01:14:20;;;;;;;;;;;;;;;11.05;72.89;96315.72;5074486;28;19965;-80
2023/05/01 01:17:03;;;;;;;;;;;;;;;11.02;73.00;96308.28;5013248;28;19952;-76
2023/05/01 01:19:44;;;;;;;;;;;;;;;10.96;72.12;96296.03;5051229;28;19956;-71
2023/05/01 01:22:12;;;;;;;;;;;;;;;10.89;72.86;96301.38;5056823;28;19962;-72
2023/05/01 01:24:41;;;;;;;;;;;;;;;10.86;72.73;96303.69;5056168;28;19949;-70
2023/05/01 01:27:15;;;;;;;;;;;;;;;10.81;72.40;96299.06;5039107;28;19947;-70
2023/05/01 01:29:43;;;;;;;;;;;;;;;10.78;72.87;96302.16;5074168;28;19952;-69
2023/05/01 01:32:45;;;;;;;;;;;;;;;10.73;73.13;96300.22;5074298;28;20328;-69
2023/05/01 01:35:15;;;;;;;;;;;;;;;10.69;73.10;96301.66;5012169;28;19953;-70
2023/05/01 01:37:48;;;;;;;;;;;;;;;10.67;74.19;96302.91;5062626;28;20315;-75
2023/05/01 01:40:16;;;;;;;;;;;;;;;10.63;74.10;96299.94;5074345;28;19950;-73
2023/05/01 01:42:45;;;;;;;;;;;;;;;10.62;74.02;96305.38;5039045;28;19963;-74
2023/05/01 01:45:12;;;;;;;;;;;;;;;10.61;74.33;96304.59;5073515;28;19947;-74
2023/05/01 01:47:40;;;;;;;;;;;;;;;10.63;74.51;96313.03;5074351;28;19949;-73
2023/05/01 01:50:07;;;;;;;;;;;;;;;10.65;74.67;96311.00;5056411;28;19945;-75
2023/05/01 01:52:35;;;;;;;;;;;;;;;10.65;75.14;96313.63;5073486;28;20384;-74
2023/05/01 01:55:08;;;;;;;;;;;;;;;10.67;74.11;96298.47;5074070;28;19941;-75
2023/05/01 01:57:38;;;;;;;;;;;;;;;10.66;74.58;96307.34;5055490;28;20421;-75
2023/05/01 02:00:07;;;;;;;;;;;;;;;10.66;74.41;96296.84;5039671;28;19948;-76
2023/05/01 02:02:36;;;;;;;;;;;;;;;10.63;73.86;96297.31;5073960;28;19964;-76
2023/05/01 02:05:02;;;;;;;;;;;;;;;10.62;74.96;96294.91;5074180;28;20281;-75
2023/05/01 02:07:28;;;;;;;;;;;;;;;10.61;74.47;96293.31;5073477;28;19946;-75
2023/05/01 02:09:55;;;;;;;;;;;;;;;10.59;74.34;96290.13;5056254;28;19940;-74
2023/05/01 02:12:22;;;;;;;;;;;;;;;10.58;74.49;96286.66;5055699;28;19952;-75
2023/05/01 02:14:50;;;;;;;;;;;;;;;10.59;74.61;96282.25;5073857;28;20398;-75
2023/05/01 02:17:17;;;;;;;;;;;;;;;10.60;74.93;96284.63;5073606;28;20370;-77
2023/05/01 02:19:43;;;;;;;;;;;;;;;10.61;75.34;96286.25;5055519;28;19956;-78
2023/05/01 02:22:10;;;;;;;;;;;;;;;10.65;74.67;96282.16;5073727;28;20345;-78
2023/05/01 02:24:38;;;;;;;;;;;;;;;10.67;74.79;96282.72;5055896;28;20326;-83
2023/05/01 02:27:08;;;;;;;;;;;;;;;10.66;74.52;96275.88;5038621;28;19950;-83
2023/05/01 02:29:34;;;;;;;;;;;;;;;10.67;74.58;96279.31;5056064;28;19955;-84
2023/05/01 02:32:00;;;;;;;;;;;;;;;10.66;73.76;96272.47;5073190;28;19949;-77
2023/05/01 02:34:26;;;;;;;;;;;;;;;10.63;74.51;96275.53;5073212;28;20314;-76
2023/05/01 02:36:52;;;;;;;;;;;;;;;10.61;74.54;96272.34;5051778;28;19966;-75
2023/05/01 02:39:18;;;;;;;;;;;;;;;10.59;74.64;96271.75;5054129;28;20005;-76
2023/05/01 02:41:45;;;;;;;;;;;;;;;10.59;75.14;96274.38;5057469;28;19965;-75
2023/05/01 02:44:11;;;;;;;;;;;;;;;10.59;75.07;96269.13;5057486;28;19948;-75
2023/05/01 02:46:41;;;;;;;;;;;;;;;10.57;74.90;96264.91;5055944;28;19945;-76
2023/05/01 02:49:08;;;;;;;;;;;;;;;10.57;74.60;96262.28;5057497;28;20410;-76
2023/05/01 02:51:34;;;;;;;;;;;;;;;10.57;74.90;96271.97;5055436;28;19954;-73
2023/05/01 02:54:00;;;;;;;;;;;;;;;10.57;74.61;96256.25;5057607;28;20398;-71
2023/05/01 02:56:26;;;;;;;;;;;;;;;10.59;74.47;96256.03;5039661;28;20487;-72
2023/05/01 02:58:52;;;;;;;;;;;;;;;10.59;74.56;96251.56;5055522;28;19944;-71
2023/05/01 03:01:19;;;;;;;;;;;;;;;10.59;74.76;96248.94;5039565;28;20025;-71
2023/05/01 03:03:45;;;;;;;;;;;;;;;10.58;74.29;96244.72;5056328;28;20440;-71
2023/05/01 03:06:13;;;;;;;;;;;;;;;10.57;74.35;96238.69;5055187;28;19947;-72
2023/05/01 03:08:39;;;;;;;;;;;;;;;10.57;74.23;96238.69;5055303;28;19947;-72
2023/05/01 03:11:05;;;;;;;;;;;;;;;10.55;74.34;96245.97;5055813;28;19949;-74
2023/05/01 03:13:31;;;;;;;;;;;;;;;10.57;74.88;96245.75;5056341;28;19948;-71
2023/05/01 03:15:57;;;;;;;;;;;;;;;10.57;74.94;96248.38;5038596;28;19944;-70
2023/05/01 03:18:23;;;;;;;;;;;;;;;10.57;74.64;96246.53;5055210;28;20307;-71
2023/05/01 03:20:52;;;;;;;;;;;;;;;10.59;75.24;96235.84;5055942;28;20364;-71
2023/05/01 03:23:18;;;;;;;;;;;;;;;10.60;75.08;96237.44;5056806;28;19970;-71
2023/05/01 03:25:44;;;;;;;;;;;;;;;10.62;75.24;96240.63;5039390;28;19952;-72
2023/05/01 03:28:10;;;;;;;;;;;;;;;10.64;74.93;96233.34;5055068;28;19947;-76
2023/05/01 03:30:36;;;;;;;;;;;;;;;10.66;74.94;96236.53;5056439;28;19950;-75
2023/05/01 03:33:02;;;;;;;;;;;;;;;10.66;74.98;96226.03;5056656;28;19982;-74
2023/05/01 03:35:28;;;;;;;;;;;;;;;10.68;75.21;96234.50;5056029;28;19950;-75
2023/05/01 03:37:54;;;;;;;;;;;;;;;10.68;75.00;96229.25;5073695;28;19974;-75
2023/05/01 03:40:20;;;;;;;;;;;;;;;10.70;76.06;96231.66;5058905;28;19962;-74
2023/05/01 03:42:46;;;;;;;;;;;;;;;10.71;77.71;96231.44;5075919;28;19956;-74
2023/05/01 03:45:11;;;;;;;;;;;;;;;10.70;76.86;96236.91;5042057;28;19952;-78
2023/05/01 03:47:37;;;;;;;;;;;;;;;10.69;76.82;96224.81;5075894;28;19946;-81
2023/05/01 03:50:03;;;;;;;;;;;;;;;10.68;77.39;96229.25;5058476;28;19968;-77
2023/05/01 03:52:29;;;;;;;;;;;;;;;10.69;77.87;96233.47;5057941;28;19975;-77
2023/05/01 03:54:56;;;;;;;;;;;;;;;10.70;78.31;96229.03;5058338;28;19948;-77
2023/05/01 03:57:25;;;;;;;;;;;;;;;10.70;79.32;96236.91;5058456;28;19947;-77
2023/05/01 03:59:52;;;;;;;;;;;;;;;10.69;78.35;96230.88;5076111;28;19946;-76
2023/05/01 04:02:17;;;;;;;;;;;;;;;10.69;80.03;96241.34;5075421;28;19981;-77
2023/05/01 04:04:43;;;;;;;;;;;;;;;10.68;80.36;96228.44;5076124;28;19946;-80
2023/05/01 04:07:09;;;;;;;;;;;;;;;10.68;81.41;96244.19;5058391;28;20301;-75
2023/05/01 04:09:35;;;;;;;;;;;;;;;10.67;82.13;96240.78;5075770;28;19950;-75
2023/05/01 04:12:01;;;;;;;;;;;;;;;10.66;82.48;96241.78;5075392;28;19948;-76
2023/05/01 04:14:27;;;;;;;;;;;;;;;10.66;81.88;96251.47;5057531;28;19943;-76
2023/05/01 04:16:53;;;;;;;;;;;;;;;10.66;82.66;96246.22;5058216;28;19968;-76
2023/05/01 04:19:19;;;;;;;;;;;;;;;10.62;81.75;96238.00;5041343;28;20147;-76
2023/05/01 04:21:45;;;;;;;;;;;;;;;10.59;82.56;96245.53;5075455;28;19962;-75
2023/05/01 04:24:11;;;;;;;;;;;;;;;10.56;82.23;96244.97;5075024;28;19951;-72
2023/05/01 04:26:38;;;;;;;;;;;;;;;10.53;83.61;96253.25;5075546;28;19956;-71
2023/05/01 04:29:04;;;;;;;;;;;;;;;10.53;84.44;96257.69;5041458;28;19952;-71
2023/05/01 04:31:29;;;;;;;;;;;;;;;10.50;84.93;96256.34;5040640;28;19953;-71
2023/05/01 04:33:55;;;;;;;;;;;;;;;10.48;85.79;96253.13;5074898;28;19990;-71
2023/05/01 04:36:21;;;;;;;;;;;;;;;10.46;86.50;96259.63;5040734;28;19982;-71
2023/05/01 04:38:47;;;;;;;;;;;;;;;10.46;87.60;96254.38;5074970;28;19948;-71
2023/05/01 04:41:13;;;;;;;;;;;;;;;10.44;87.50;96251.97;5057026;28;19950;-76
2023/05/01 04:43:39;;;;;;;;;;;;;;;10.45;88.89;96256.19;5056712;28;19977;-76
2023/05/01 04:46:05;;;;;;;;;;;;;;;10.44;89.19;96251.19;5056851;28;19942;-76
2023/05/01 04:48:31;;;;;;;;;;;;;;;10.43;88.87;96252.19;5075054;28;19946;-76
2023/05/01 04:50:57;;;;;;;;;;;;;;;10.43;88.73;96246.94;5074786;28;19944;-76
2023/05/01 04:53:23;;;;;;;;;;;;;;;10.42;89.27;96248.78;5074953;28;19949;-75
2023/05/01 04:55:49;;;;;;;;;;;;;;;10.43;89.56;96254.81;5074528;28;19996;-74
2023/05/01 04:58:15;;;;;;;;;;;;;;;10.41;89.41;96247.16;5057389;28;19954;-75
2023/05/01 05:00:40;;;;;;;;;;;;;;;10.42;89.49;96250.59;5056539;28;20377;-75
2023/05/01 05:03:06;;;;;;;;;;;;;;;10.41;90.91;96256.84;5056962;28;19989;-76
2023/05/01 05:05:32;;;;;;;;;;;;;;;10.40;91.41;96255.25;5075183;28;19947;-75
2023/05/01 05:07:58;;;;;;;;;;;;;;;10.39;92.05;96253.66;5056348;28;20035;-76
2023/05/01 05:10:24;;;;;;;;;;;;;;;10.38;91.22;96254.69;5057447;28;19961;-75
2023/05/01 05:12:50;;;;;;;;;;;;;;;10.36;92.23;96257.50;5074136;28;19942;-77
2023/05/01 05:15:16;;;;;;;;;;;;;;;10.34;90.84;96249.88;5075080;28;19947;-76
2023/05/01 05:17:42;;;;;;;;;;;;;;;10.32;90.75;96257.16;5039694;28;20470;-76
2023/05/01 05:20:08;;;;;;;;;;;;;;;10.31;90.81;96250.31;5074429;28;19946;-77
2023/05/01 05:22:35;;;;;;;;;;;;;;;10.32;90.03;96256.34;5039317;28;19962;-74
2023/05/01 05:25:03;;;;;;;;;;;;;;;10.30;91.55;96255.78;5074663;28;20329;-73
2023/05/01 05:27:30;;;;;;;;;;;;;;;10.32;90.20;96253.72;5073850;28;19947;-74
2023/05/01 05:29:56;;;;;;;;;;;;;;;10.34;89.81;96249.88;5074333;28;20308;-73
2023/05/01 05:32:22;;;;;;;;;;;;;;;10.34;88.88;96249.88;5073915;28;19944;-74
2023/05/01 05:34:47;;;;;;;;;;;;;;;10.35;88.71;96254.09;5039513;28;20425;-74
2023/05/01 05:37:14;;;;;;;;;;;;;;;10.36;89.08;96254.91;5073541;28;19975;-75
2023/05/01 05:39:40;;;;;;;;;;;;;;;10.36;90.20;96258.31;5056401;28;19949;-71
2023/05/01 05:42:06;;;;;;;;;;;;;;;10.38;91.16;96262.53;5056243;28;19968;-71
2023/05/01 05:44:34;;;;;;;;;;;;;;;10.39;92.27;96257.06;5055806;28;20327;-71
2023/05/01 05:47:00;;;;;;;;;;;;;;;10.39;92.06;96262.31;5055828;28;19950;-71
2023/05/01 05:49:26;;;;;;;;;;;;;;;10.44;92.97;96264.28;5039744;28;19995;-71
2023/05/01 05:51:52;;;;;;;;;;;;;;;10.46;93.17;96263.03;5073623;28;19966;-71
2023/05/01 05:54:18;;;;;;;;;;;;;;;10.49;91.14;96252.09;5073687;28;19950;-73
2023/05/01 05:56:44;;;;;;;;;;;;;;;10.52;88.08;96237.72;5073586;28;20388;-72
2023/05/01 05:59:09;;;;;;;;;;;;;;;10.51;88.85;96249.25;5074170;28;20004;-75
2023/05/01 06:01:36;;;;;;;;;;;;;;;10.51;87.76;96239.56;5055687;28;19946;-75
2023/05/01 06:04:02;;;;;;;;;;;;;;;10.49;87.89;96238.19;5056556;28;19943;-75
2023/05/01 06:06:28;;;;;;;;;;;;;;;10.51;89.33;96257.13;5055088;28;19952;-75
2023/05/01 06:08:54;;;;;;;;;;;;;;;10.53;90.60;96258.50;5055875;28;19948;-75
2023/05/01 06:11:20;;;;;;;;;;;;;;;10.56;91.75;96262.50;5055461;28;20469;-74
2023/05/01 06:13:46;;;;;;;;;;;;;;;10.55;91.28;96255.66;5074885;28;19942;-71
2023/05/01 06:16:12;;;;;;;;;;;;;;;10.54;91.64;96257.50;5059928;28;19951;-82
2023/05/01 06:18:38;;;;;;;;;;;;;;;10.57;92.40;96256.25;5078173;28;20033;-82
2023/05/01 06:21:04;;;;;;;;;;;;;;;10.56;91.21;96249.38;5043018;28;20468;-81
2023/05/01 06:23:30;;;;;;;;;;;;;;;10.57;91.33;96258.88;5042809;28;19970;-82
2023/05/01 06:25:56;;;;;;;;;;;;;;;10.59;93.26;96269.13;5060261;28;19958;-82
2023/05/01 06:28:22;;;;;;;;;;;;;;;10.51;94.38;96263.16;5060116;28;19950;-82
2023/05/01 06:30:48;;;;;;;;;;;;;;;10.41;94.86;96268.13;5042969;28;19991;-71
2023/05/01 06:33:14;;;;;;;;;;;;;;;10.40;94.19;96266.53;5077709;28;19951;-74
2023/05/01 06:35:40;;;;;;;;;;;;;;;10.46;95.53;96264.88;5059277;28;20317;-73
2023/05/01 06:38:06;;;;;;;;;;;;;;;10.53;95.17;96262.94;5077056;28;20021;-72
2023/05/01 06:40:33;;;;;;;;;;;;;;;10.60;94.93;96262.84;5077130;28;20006;-73
2023/05/01 06:43:02;;;;;;;;;;;;;;;10.65;95.29;96261.19;5076910;28;19961;-73
2023/05/01 06:45:28;;;;;;;;;;;;;;;10.74;93.13;96251.97;5076951;28;19946;-72
2023/05/01 06:47:54;;;;;;;;;;;;;;;10.79;88.86;96229.50;5077889;28;19938;-74
2023/05/01 06:50:19;;;;;;;;;;;;;;;10.83;90.90;96247.19;5076810;28;19955;-72
2023/05/01 06:52:45;;;;;;;;;;;;;;;10.82;90.90;96250.06;5059001;28;20037;-72
2023/05/01 06:55:11;;;;;;;;;;;;;;;10.79;92.20;96263.59;5076915;28;19950;-72
2023/05/01 06:57:38;;;;;;;;;;;;;;;10.75;92.08;96260.63;5076676;28;20426;-72
2023/05/01 07:00:05;;;;;;;;;;;;;;;10.72;92.59;96259.25;5059652;28;19941;-72
2023/05/01 07:02:31;;;;;;;;;;;;;;;10.75;91.37;96261.44;5077437;28;20430;-72
2023/05/01 07:04:57;;;;;;;;;;;;;;;10.77;90.66;96251.53;5076586;28;19949;-72
2023/05/01 07:07:23;;;;;;;;;;;;;;;10.83;92.08;96259.50;5076598;28;19953;-76
2023/05/01 07:09:48;;;;;;;;;;;;;;;10.84;90.82;96256.69;5077272;28;20293;-74
2023/05/01 07:12:14;;;;;;;;;;;;;;;10.88;91.80;96259.66;5076625;28;19944;-71
2023/05/01 07:14:40;;;;;;;;;;;;;;;10.91;91.44;96259.19;5077355;28;20300;-72
2023/05/01 07:17:08;;;;;;;;;;;;;;;10.93;89.27;96241.41;5076355;28;19941;-71
2023/05/01 07:19:34;;;;;;;;;;;;;;;10.89;90.80;96254.16;5059445;28;20383;-71
2023/05/01 07:21:59;;;;;;;;;;;;;;;10.87;92.16;96252.78;5059319;28;19955;-72
2023/05/01 07:24:25;;;;;;;;;;;;;;;10.86;91.11;96257.25;5042055;28;20393;-72
2023/05/01 07:26:51;;;;;;;;;;;;;;;10.82;91.54;96256.09;5076245;28;19948;-71
2023/05/01 07:29:17;;;;;;;;;;;;;;;10.79;92.64;96266.22;5042959;28;19946;-74
2023/05/01 07:31:43;;;;;;;;;;;;;;;10.75;90.29;96239.63;5058313;28;20364;-75
2023/05/01 07:34:10;;;;;;;;;;;;;;;10.83;91.63;96254.28;5076479;28;19951;-75
2023/05/01 07:36:36;;;;;;;;;;;;;;;10.95;93.46;96258.53;5076493;28;19977;-75
2023/05/01 07:39:03;;;;;;;;;;;;;;;11.07;92.25;96252.50;5075970;28;19974;-75
2023/05/01 07:41:29;;;;;;;;;;;;;;;11.14;93.16;96259.25;5076152;28;19952;-75
2023/05/01 07:43:57;;;;;;;;;;;;;;;11.19;91.78;96245.44;5075902;28;20339;-75
2023/05/01 07:46:23;;;;;;;;;;;;;;;11.28;91.06;96240.69;5076819;28;20380;-73
2023/05/01 07:48:48;;;;;;;;;;;;;;;11.38;92.82;96249.59;5076633;28;19965;-72
2023/05/01 07:51:14;;;;;;;;;;;;;;;11.51;90.60;96232.00;5041797;28;20432;-72
2023/05/01 07:53:41;;;;;;;;;;;;;;;11.68;87.45;96221.63;5057822;28;19940;-72
2023/05/01 07:56:07;;;;;;;;;;;;;;;11.71;85.42;96195.66;5076391;28;19940;-72
2023/05/01 07:58:35;;;;;;;;;;;;;;;11.77;86.49;96209.72;5076065;28;20043;-72
2023/05/01 08:01:00;;;;;;;;;;;;;;;11.88;87.38;96208.09;5058364;28;19953;-73
2023/05/01 08:03:28;;;;;;;;;;;;;;;12.01;86.24;96212.31;5075817;28;20405;-72
2023/05/01 08:05:54;;;;;;;;;;;;;;;12.06;86.34;96215.06;5057761;28;19952;-72
2023/05/01 08:08:20;;;;;;;;;;;;;;;12.06;86.21;96212.44;5041639;28;20007;-72
2023/05/01 08:10:46;;;;;;;;;;;;;;;12.03;86.43;96218.13;5075519;28;19942;-71
2023/05/01 08:13:12;;;;;;;;;;;;;;;12.13;87.19;96223.59;5058267;28;19951;-71
2023/05/01 08:15:38;;;;;;;;;;;;;;;12.25;87.46;96215.69;5041824;28;19954;-71
2023/05/01 08:18:04;;;;;;;;;;;;;;;12.34;87.02;96217.69;5057385;28;20005;-72
2023/05/01 08:20:30;;;;;;;;;;;;;;;12.47;87.43;96215.81;5057710;28;19950;-72
2023/05/01 08:22:55;;;;;;;;;;;;;;;12.57;83.97;96189.72;5057971;28;19979;-77
2023/05/01 08:25:21;;;;;;;;;;;;;;;12.76;84.71;96198.19;5040672;28;20388;-76
2023/05/01 08:27:48;;;;;;;;;;;;;;;13.01;86.91;96213.59;5075386;28;19986;-77
2023/05/01 08:30:13;;;;;;;;;;;;;;;13.19;85.23;96196.78;5057330;28;19958;-77
2023/05/01 08:32:39;;;;;;;;;;;;;;;13.29;84.37;96198.78;5057174;28;19952;-76
2023/05/01 08:35:05;;;;;;;;;;;;;;;13.27;80.56;96171.88;5075699;28;19937;-77
2023/05/01 08:37:31;;;;;;;;;;;;;;;13.20;82.41;96180.72;5073936;28;20053;-77
2023/05/01 08:39:57;;;;;;;;;;;;;;;13.38;83.75;96194.72;5057491;28;20297;-75
2023/05/01 08:42:23;;;;;;;;;;;;;;;13.48;81.68;96178.25;5074826;28;19950;-73
2023/05/01 08:44:50;;;;;;;;;;;;;;;13.45;82.18;96184.81;5075230;28;19952;-71
2023/05/01 08:47:17;;;;;;;;;;;;;;;13.50;83.55;96192.78;5057654;28;20340;-71
2023/05/01 08:49:43;;;;;;;;;;;;;;;13.50;80.87;96171.72;5056835;28;19948;-71
2023/05/01 08:52:10;;;;;;;;;;;;;;;13.51;81.52;96183.03;5040331;28;19955;-72
2023/05/01 08:54:38;;;;;;;;;;;;;;;13.56;81.72;96183.91;5057134;28;20397;-71
2023/05/01 08:57:05;;;;;;;;;;;;;;;13.68;81.43;96188.28;5056842;28;19998;-72
2023/05/01 08:59:34;;;;;;;;;;;;;;;13.78;81.67;96191.84;5056922;28;20407;-73
2023/05/01 09:02:03;;;;;;;;;;;;;;;13.91;83.29;96190.69;5056689;28;19960;-72
2023/05/01 09:04:31;;;;;;;;;;;;;;;14.10;81.06;96177.19;5056453;28;19966;-72
2023/05/01 09:06:59;;;;;;;;;;;;;;;14.13;80.03;96169.59;5057283;28;20389;-73
2023/05/01 09:09:25;;;;;;;;;;;;;;;14.10;78.06;96156.09;5040588;28;19992;-72
2023/05/01 09:11:53;;;;;;;;;;;;;;;14.05;78.42;96156.03;5056324;28;20335;-72
2023/05/01 09:14:19;;;;;;;;;;;;;;;14.04;79.65;96160.50;5056546;28;19948;-72
2023/05/01 09:16:44;;;;;;;;;;;;;;;14.12;78.95;96167.97;5057399;28;19953;-75
2023/05/01 09:19:10;;;;;;;;;;;;;;;14.21;77.39;96144.59;5074923;28;19954;-77
2023/05/01 09:21:36;;;;;;;;;;;;;;;14.32;78.93;96159.50;5056221;28;19949;-74
2023/05/01 09:24:02;;;;;;;;;;;;;;;14.51;77.70;96153.84;5056075;28;19969;-74
2023/05/01 09:26:33;;;;;;;;;;;;;;;14.62;77.61;96147.69;5073516;28;21605;-74
2023/05/01 09:28:59;;;;;;;;;;;;;;;14.82;75.94;96142.56;5055924;28;19957;-74
2023/05/01 09:31:27;;;;;;;;;;;;;;;14.85;75.47;96127.28;5056605;28;19949;-75
2023/05/01 09:33:57;;;;;;;;;;;;;;;14.82;76.09;96134.66;5056371;28;19948;-74
2023/05/01 09:36:24;;;;;;;;;;;;;;;14.88;77.77;96158.44;5055692;28;19974;-76
2023/05/01 09:38:50;;;;;;;;;;;;;;;15.05;75.63;96137.19;5039541;28;19949;-73
2023/05/01 09:41:17;;;;;;;;;;;;;;;15.13;75.02;96134.06;5039212;28;19962;-74
2023/05/01 09:43:48;;;;;;;;;;;;;;;15.14;74.76;96135.66;5073790;28;19962;-74
2023/05/01 09:46:14;;;;;;;;;;;;;;;15.05;75.10;96135.34;5056603;28;19959;-74
2023/05/01 09:48:40;;;;;;;;;;;;;;;14.99;75.34;96133.69;5056132;28;19945;-74
2023/05/01 09:51:19;;;;;;;;;;;;;;;14.91;75.44;96136.81;5055453;28;19994;-74
2023/05/01 09:53:45;;;;;;;;;;;;;;;14.94;76.20;96146.88;5073652;28;19948;-76
2023/05/01 09:56:10;;;;;;;;;;;;;;;14.93;75.29;96138.16;5039555;28;19980;-76
2023/05/01 09:58:36;;;;;;;;;;;;;;;14.88;76.24;96147.88;5055588;28;19954;-74
2023/05/01 10:01:02;;;;;;;;;;;;;;;14.88;75.35;96140.75;5056374;28;19943;-75
2023/05/01 10:03:28;;;;;;;;;;;;;;;14.85;74.70;96133.34;5073379;28;20440;-74
2023/05/01 10:05:56;;;;;;;;;;;;;;;14.75;74.60;96130.63;5039825;28;19953;-74
2023/05/01 10:08:22;;;;;;;;;;;;;;;14.68;76.54;96159.06;5055503;28;20311;-72
2023/05/01 10:11:07;;;;;;;;;;;;;;;14.59;76.85;96159.53;5073449;28;19948;-74
2023/05/01 10:13:32;;;;;;;;;;;;;;;14.55;78.64;96176.06;5038903;28;20312;-77
2023/05/01 10:16:00;;;;;;;;;;;;;;;14.55;77.43;96161.09;5056474;28;19947;-78
2023/05/01 10:18:26;;;;;;;;;;;;;;;14.56;76.90;96146.81;5056332;28;19946;-76
2023/05/01 10:20:52;;;;;;;;;;;;;;;14.53;76.99;96157.03;5056304;28;19948;-76
2023/05/01 10:23:18;;;;;;;;;;;;;;;14.47;77.69;96165.97;5055812;28;19964;-76
2023/05/01 10:25:47;;;;;;;;;;;;;;;14.39;77.67;96170.66;5055517;28;19990;-77
2023/05/01 10:28:13;;;;;;;;;;;;;;;14.38;78.48;96179.63;5056370;28;20405;-77
2023/05/01 10:30:40;;;;;;;;;;;;;;;14.34;79.03;96178.53;5056349;28;19976;-76
2023/05/01 10:33:06;;;;;;;;;;;;;;;14.30;79.67;96190.63;5039804;28;19953;-86
2023/05/01 10:35:37;;;;;;;;;;;;;;;14.26;79.30;96191.31;5055188;28;19946;-73
2023/05/01 10:38:08;;;;;;;;;;;;;;;14.14;80.59;96200.19;5055061;28;19973;-73
2023/05/01 10:40:44;;;;;;;;;;;;;;;14.11;81.65;96205.13;5039507;28;19955;-73
2023/05/01 10:43:29;;;;;;;;;;;;;;;14.04;83.27;96223.00;5038481;28;19966;-73
2023/05/01 10:46:11;;;;;;;;;;;;;;;13.91;88.17;96251.31;5038594;28;19953;-73
2023/05/01 10:48:36;;;;;;;;;;;;;;;13.75;91.25;96257.41;5073708;28;19937;-76
2023/05/01 10:51:07;;;;;;;;;;;;;;;13.60;90.84;96245.59;5055305;28;20382;-73
2023/05/01 10:53:33;;;;;;;;;;;;;;;13.50;93.10;96256.03;5073604;28;19941;-73
2023/05/01 10:55:59;;;;;;;;;;;;;;;13.47;93.60;96267.03;5055294;28;19990;-74
2023/05/01 10:58:40;;;;;;;;;;;;;;;13.47;94.09;96256.50;5073529;28;19947;-73
2023/05/01 11:01:25;;;;;;;;;;;;;;;13.50;94.97;96260.47;5059338;28;19937;-73
2023/05/01 11:03:51;;;;;;;;;;;;;;;13.50;95.23;96247.31;5059200;28;19968;-72
2023/05/01 11:06:16;;;;;;;;;;;;;;;13.54;95.22;96249.22;5059414;28;19950;-73
2023/05/01 11:08:44;;;;;;;;;;;;;;;13.57;95.53;96248.75;5058883;28;19942;-82
2023/05/01 11:11:16;;;;;;;;;;;;;;;13.59;92.72;96235.31;5059341;28;19940;-77
2023/05/01 11:13:54;;;;;;;;;;;;;;;13.64;91.34;96221.44;5059428;28;20304;-77
2023/05/01 11:16:38;;;;;;;;;;;;;;;13.70;90.95;96223.09;5076519;28;20412;-77
2023/05/01 11:19:05;;;;;;;;;;;;;;;13.77;90.06;96215.78;5042567;28;19949;-77
2023/05/01 11:21:33;;;;;;;;;;;;;;;13.86;90.02;96217.00;5077250;28;19956;-77
2023/05/01 11:23:59;;;;;;;;;;;;;;;14.07;89.37;96202.22;5042564;28;19967;-78
2023/05/01 11:26:25;;;;;;;;;;;;;;;14.33;90.25;96216.47;5059378;28;20305;-78
2023/05/01 11:28:53;;;;;;;;;;;;;;;14.59;86.04;96183.28;5076872;28;19938;-72
2023/05/01 11:31:19;;;;;;;;;;;;;;;14.88;82.25;96153.94;5042570;28;19957;-73
2023/05/01 11:33:45;;;;;;;;;;;;;;;15.09;83.19;96157.53;5059358;28;19937;-82
2023/05/01 11:36:12;;;;;;;;;;;;;;;15.41;80.63;96133.72;5076408;28;20080;-78
2023/05/01 11:38:48;;;;;;;;;;;;;;;15.82;78.15;96117.28;5042818;28;19949;-79
2023/05/01 11:41:18;;;;;;;;;;;;;;;16.21;78.32;96115.00;5041598;28;19943;-78
2023/05/01 11:43:55;;;;;;;;;;;;;;;16.61;76.78;96108.19;5058139;28;19984;-81
2023/05/01 11:46:26;;;;;;;;;;;;;;;16.89;75.02;96097.34;5058192;28;19950;-74
2023/05/01 11:48:55;;;;;;;;;;;;;;;16.74;72.25;96069.78;5058087;28;19946;-80
2023/05/01 11:51:22;;;;;;;;;;;;;;;16.61;73.06;96089.66;5057769;28;19977;-80
2023/05/01 11:54:00;;;;;;;;;;;;;;;16.67;72.11;96079.84;5057717;28;19951;-81
2023/05/01 11:56:26;;;;;;;;;;;;;;;16.67;70.68;96066.59;5076053;28;19951;-81
2023/05/01 11:58:53;;;;;;;;;;;;;;;16.66;70.47;96069.53;5057943;28;19942;-81
2023/05/01 12:01:19;;;;;;;;;;;;;;;16.61;72.69;96087.00;5041080;28;19948;-81
2023/05/01 12:03:45;;;;;;;;;;;;;;;16.61;71.98;96091.50;5076451;28;20425;-77
2023/05/01 12:06:12;;;;;;;;;;;;;;;16.44;69.74;96066.09;5041812;28;19948;-76
2023/05/01 12:08:47;;;;;;;;;;;;;;;16.27;71.21;96085.91;5075553;28;20010;-75
2023/05/01 12:11:13;;;;;;;;;;;;;;;16.29;74.16;96113.69;5057232;28;19955;-73
2023/05/01 12:13:39;;;;;;;;;;;;;;;16.44;72.90;96099.69;5076149;28;19952;-76
2023/05/01 12:16:05;;;;;;;;;;;;;;;16.64;71.14;96090.97;5057451;28;19953;-76
2023/05/01 12:18:31;;;;;;;;;;;;;;;16.58;71.18;96103.41;5058261;28;19988;-76
2023/05/01 12:20:57;;;;;;;;;;;;;;;16.62;72.24;96112.41;5057498;28;19997;-80
2023/05/01 12:23:31;;;;;;;;;;;;;;;16.53;69.96;96103.41;5058122;28;20073;-77
2023/05/01 12:25:57;;;;;;;;;;;;;;;16.46;70.60;96107.38;5058130;28;19953;-73
2023/05/01 12:28:23;;;;;;;;;;;;;;;16.42;69.89;96099.16;5058166;28;19954;-73
2023/05/01 12:30:49;;;;;;;;;;;;;;;16.40;69.38;96101.28;5040613;28;19956;-73
2023/05/01 12:33:16;;;;;;;;;;;;;;;16.42;69.41;96110.56;5041066;28;19952;-73
2023/05/01 12:35:46;;;;;;;;;;;;;;;16.45;71.19;96125.09;5057687;28;19953;-73
2023/05/01 12:38:18;;;;;;;;;;;;;;;16.49;72.95;96134.09;5075370;28;19949;-73
2023/05/01 12:40:58;;;;;;;;;;;;;;;16.45;72.75;96125.09;5057136;28;19952;-77
2023/05/01 12:43:31;;;;;;;;;;;;;;;16.20;77.16;96168.19;5057665;28;19964;-77
2023/05/01 12:45:57;;;;;;;;;;;;;;;15.81;81.20;96184.41;5075296;28;19957;-82
2023/05/01 12:48:24;;;;;;;;;;;;;;;15.48;84.40;96189.00;5056840;28;19954;-80